Race Results for…
Pacific Grove Lighthouse 5K

November 09, 2019 Results presented by Big Sur Marathon Foundation and timed by SVE Timing
Participants:
2165
Last Updated:
11/30/2019 4:31:11 PM

Results are preliminary for 3 days.

Stats

Overall Results

Tip: Swipe the results table to view more.
1818 entrants …
5K Results
Bib Name City Chip Elapsed Pace Division Div Place Age Age Place Gender Gender Place
13835 BROEN HOLMAN SONORA 00:15:23 04:57 min/mile 5K 1 13 1 M 1
13888 STEVEN GROLLE LOS ALTOS 00:15:24 04:58 min/mile 5K 2 24 1 M 2
13475 MICHAEL MRGUDIC TURLOCK 00:15:35 05:01 min/mile 5K 3 24 2 M 3
14246 SEAN COYLE MONTEREY 00:16:39 05:22 min/mile 5K 4 31 1 M 4
11 KYRK JORDAN SAN MATEO 00:17:11 05:32 min/mile 5K 5 38 1 M 5
13084 MISSING NAME PORTOLA VALLEY 00:17:33 05:39 min/mile 5K 6 0 0 M 0
13962 HUNTER KELLY SANTA CRUZ 00:17:41 05:42 min/mile 5K 7 18 1 M 6
13228 NATHANIEL FREESE SAN FRANCISCO 00:17:42 05:42 min/mile 5K 8 34 2 M 7
34 KEVIN ZENTNER TRACY 00:18:57 06:06 min/mile 5K 9 26 1 M 8
13128 AIDAN CINQUE SANTA CRUZ 00:19:05 06:09 min/mile 5K 10 15 2 M 9
13942 JOHN HUGHES PLANO 00:19:14 06:12 min/mile 5K 11 43 1 M 10
13985 JAIRO GARCIA MEXICO 00:19:14 06:12 min/mile 5K 12 29 2 M 11
13571 KADEN ROBISON SONORA 00:19:33 06:18 min/mile 5K 13 14 2 M 12
13886 ALEJANDRO GONZALEZ BEN LOMOND 00:19:34 06:18 min/mile 5K 14 58 1 M 13
13651 CAMERON TAYLOR PALO ALTO 00:19:35 06:19 min/mile 5K 15 24 3 M 14
15009 JEN ALBRIGHT VISTA 00:19:38 06:20 min/mile 5K 16 30 1 F 1
2043 BRAD YOUNG ALEXANDRIA 00:19:39 06:20 min/mile 5K 17 32 3 M 15
13156 JOHN DANIEL SANTA CLARA 00:19:40 06:20 min/mile 5K 18 35 2 M 16
1041 JOHN MINKEMA MODESTO 00:19:48 06:23 min/mile 5K 19 43 2 M 17
13821 NICHOLAS KOTT SAN JOSE 00:19:50 06:23 min/mile 5K 20 29 3 M 18
1024 BILL HAUPERT OLYMPIC VLY 00:19:51 06:24 min/mile 5K 21 50 1 M 19
13840 ABE PEDROZA MARINA 00:20:05 06:28 min/mile 5K 22 39 3 M 20
4025 PETER HESS WINSTON SALEM 00:20:08 06:29 min/mile 5K 23 30 4 M 21
27 KAREN SOBRINO ST GALLEN 00:20:08 06:29 min/mile 5K 24 46 1 F 2
13947 LIISA NICHOLS DEL REY OAKS 00:20:14 06:31 min/mile 5K 25 53 1 F 3
15037 NATHAN SANDERS ALBERT LEE 00:20:24 06:34 min/mile 5K 26 36 4 M 22
13525 ANDREA PAGE PACIFIC GROVE 00:20:25 06:35 min/mile 5K 27 43 1 F 4
13880 DAVID BAIRD PACIFIC GROVE 00:20:28 06:36 min/mile 5K 28 35 5 M 23
13179 NICHOLAS DILLES SANTA CRUZ 00:20:32 06:37 min/mile 5K 29 33 5 M 24
1023 HALEY HAMMERSHAIMB SAN FRANCISCO 00:20:35 06:38 min/mile 5K 30 30 2 F 5
5 BRIAN EARP CARMEL 00:20:40 06:40 min/mile 5K 31 42 3 M 25
20 LANDON PETERSEN CHICAGO 00:20:41 06:40 min/mile 5K 32 33 6 M 26
33 SHAWN YOUNG VALENCIA 00:20:42 06:40 min/mile 5K 33 45 1 M 27
3 JON DRISCOLL PACIFIC GROVE 00:20:45 06:41 min/mile 5K 34 35 6 M 28
13709 LINDSAY WETZEL POLIN MARINA 00:20:46 06:41 min/mile 5K 35 38 1 F 6
1020 JOSIAH FORD FRESNO 00:20:54 06:44 min/mile 5K 36 14 3 M 29
13 RICHIE KING WEST SACRAMENTO 00:20:55 06:44 min/mile 5K 37 50 2 M 30
2009 EARL DEAN SEASIDE 00:20:56 06:45 min/mile 5K 38 47 2 M 31
1019 TALAN FORBORD LOS GATOS 00:20:58 06:45 min/mile 5K 39 13 4 M 32
24 MATTHEW SHUCK ATASCADERO 00:20:59 06:46 min/mile 5K 40 35 7 M 33
15 BRIAN MITCHLER SANTA CRUZ 00:21:02 06:47 min/mile 5K 41 56 2 M 34
1 RACHAEL BANTON TEMPLETON 00:21:02 06:47 min/mile 5K 42 30 3 F 7
1045 ESTEBAN ORTEGA SEASIDE 00:21:04 06:47 min/mile 5K 43 51 3 M 35
2015 JEN GRUBER SEASIDE 00:21:07 06:48 min/mile 5K 44 32 4 F 8
13463 PETER MOORE SALINAS 00:21:07 06:48 min/mile 5K 45 16 3 M 36
13940 JONATHAN GELLER SALINAS 00:21:10 06:49 min/mile 5K 46 61 1 M 37
3040 JUAN ROJO KING CITY 00:21:13 06:50 min/mile 5K 47 26 4 M 38
13623 DEVYN SMITH LOS ALTOS 00:21:15 06:51 min/mile 5K 48 10 1 F 9
13018 SIDDHARTH ANANT SAN JOSE 00:21:19 06:52 min/mile 5K 49 15 4 M 39
25 FRED SIPAT SANTA CLARA 00:21:20 06:52 min/mile 5K 50 60 2 M 40
1818 entrants …

MASTERS Results

Tip: Swipe the results table to view more.
961 entrants …
MASTERS Results
Bib Name City Chip Elapsed Pace Division Div Place Age Age Place Gender Gender Place
13942 JOHN HUGHES PLANO 00:19:14 06:12 min/mile 5K 11 43 1 M 10
13886 ALEJANDRO GONZALEZ BEN LOMOND 00:19:34 06:18 min/mile 5K 14 58 1 M 13
1041 JOHN MINKEMA MODESTO 00:19:48 06:23 min/mile 5K 19 43 2 M 17
1024 BILL HAUPERT OLYMPIC VLY 00:19:51 06:24 min/mile 5K 21 50 1 M 19
27 KAREN SOBRINO ST GALLEN 00:20:08 06:29 min/mile 5K 24 46 1 F 2
13947 LIISA NICHOLS DEL REY OAKS 00:20:14 06:31 min/mile 5K 25 53 1 F 3
13525 ANDREA PAGE PACIFIC GROVE 00:20:25 06:35 min/mile 5K 27 43 1 F 4
5 BRIAN EARP CARMEL 00:20:40 06:40 min/mile 5K 31 42 3 M 25
33 SHAWN YOUNG VALENCIA 00:20:42 06:40 min/mile 5K 33 45 1 M 27
13 RICHIE KING WEST SACRAMENTO 00:20:55 06:44 min/mile 5K 37 50 2 M 30
2009 EARL DEAN SEASIDE 00:20:56 06:45 min/mile 5K 38 47 2 M 31
15 BRIAN MITCHLER SANTA CRUZ 00:21:02 06:47 min/mile 5K 41 56 2 M 34
1045 ESTEBAN ORTEGA SEASIDE 00:21:04 06:47 min/mile 5K 43 51 3 M 35
13940 JONATHAN GELLER SALINAS 00:21:10 06:49 min/mile 5K 46 61 1 M 37
25 FRED SIPAT SANTA CLARA 00:21:20 06:52 min/mile 5K 50 60 2 M 40
26 WILLIAM SMITH QUEEN CREEK 00:21:24 06:54 min/mile 5K 51 47 3 M 41
15070 DAVID DIAZ MONTEREY 00:21:28 06:55 min/mile 5K 53 46 4 M 43
15063 STEVE SCOTT PACIFIC GROVE 00:21:48 07:01 min/mile 5K 58 63 3 M 48
1065 TOMMY WITTEBERG DORSTEN 00:21:51 07:02 min/mile 5K 59 42 4 M 49
4028 BOBBY HOLLIS SAN FRANCISCO 00:21:57 07:04 min/mile 5K 63 45 5 M 53
1037 BOBBY MCKEE LA SELVA BCH 00:21:59 07:05 min/mile 5K 64 70 1 M 54
1044 SCOTT OLENSKI SAN FRANCISCO 00:22:08 07:08 min/mile 5K 68 48 6 M 57
13724 JENNIFER WILLOUGHBY APTOS 00:22:11 07:09 min/mile 5K 69 41 2 F 11
8014 PETER CLAIRE LODI 00:22:13 07:10 min/mile 5K 70 43 5 M 58
2027 DOUG NEVEU MESQUITE 00:22:24 07:13 min/mile 5K 74 59 3 M 61
13510 EMMETT OCONNELL OLYMPIA 00:22:30 07:15 min/mile 5K 76 43 6 M 63
16 SCOTT MOORE PACIFIC GROVE 00:22:31 07:15 min/mile 5K 77 49 7 M 64
13189 MICHAEL DRISCOLL SAN FRANCISCO 00:22:36 07:17 min/mile 5K 83 43 7 M 67
13119 JOCELYN CHAPMAN SAN FRANCISCO 00:22:37 07:17 min/mile 5K 84 42 3 F 15
3018 MICHAEL HUGHES MONTEREY 00:22:39 07:18 min/mile 5K 85 41 8 M 68
1060 SARAH THOMAS ARNOLD 00:22:41 07:19 min/mile 5K 87 44 4 F 17
13556 TOMAS RAMIREZ MONTEREY 00:22:43 07:19 min/mile 5K 88 44 9 M 69
13663 LESLIE THURMAN SALINAS 00:22:45 07:20 min/mile 5K 90 45 8 M 71
13721 ERIKA WILLIAMS LANTANA 00:22:49 07:21 min/mile 5K 91 44 5 F 18
13365 PAUL KRALOVANEC TAMPA 00:22:55 07:23 min/mile 5K 94 50 4 M 74
13192 MIKE DUNN NEWARK 00:23:08 07:27 min/mile 5K 101 64 4 M 78
2038 TIMOTHY STARK SAN FRANCISCO 00:23:13 07:29 min/mile 5K 106 48 9 M 82
1040 EMMA MEDARA TRUCKEE 00:23:13 07:29 min/mile 5K 107 53 2 F 22
13945 REBECCA KLEIN SONORA 00:23:19 07:31 min/mile 5K 110 42 6 F 23
1027 BRUCE HORN PORTLAND 00:23:21 07:31 min/mile 5K 111 60 5 M 85
3007 MICHAEL CINQUE SANTA CRUZ 00:23:42 07:38 min/mile 5K 118 54 5 M 90
13060 JOSEPH BLAU MARINA 00:23:46 07:40 min/mile 5K 122 57 4 M 93
1033 KELLY JO LAGUNA GILROY 00:23:47 07:40 min/mile 5K 123 40 7 F 27
3013 BRANDON ELLIS BLUFFDALE 00:23:57 07:43 min/mile 5K 126 40 10 M 94
13961 LYN JOHNSON SANTA CRUZ 00:24:00 07:44 min/mile 5K 128 53 3 F 31
13815 TONY GOUSSELOT MONTEREY 00:24:07 07:46 min/mile 5K 131 43 11 M 97
5027 ALICIA JUAREZ WHITTIER 00:24:09 07:47 min/mile 5K 133 54 4 F 33
1059 CHRISTOPHER SULLIVAN NEWARK 00:24:13 07:48 min/mile 5K 134 63 6 M 98
4049 MELISSA ORR PRUNEDALE 00:24:16 07:49 min/mile 5K 137 42 8 F 34
5036 LUCY MILLETTE SEASIDE 00:24:31 07:54 min/mile 5K 144 44 9 F 37
961 entrants …

Winners

Tip: Slide the results table left and right to view more.
Overall
Bib Name City Chip Elapsed Pace Division Div Place Age Age Place Gender Gender Place
13835 BROEN HOLMAN SONORA 00:15:23 04:57 min/mile 5K 1 13 1 M 1
15009 JEN ALBRIGHT VISTA 00:19:38 06:20 min/mile 5K 16 30 1 F 1
MASTERS
Bib Name City Chip Elapsed Pace Division Div Place Age Age Place Gender Gender Place
13942 JOHN HUGHES PLANO 00:19:14 06:12 min/mile MASTERS 1 43 1 M 1
27 KAREN SOBRINO ST GALLEN 00:20:08 06:29 min/mile MASTERS 1 46 1 F 1
1 - 8
Bib Name City Chip Elapsed Pace Division Div Place Age Age Place Gender Gender Place
13858 JAKOBY CLUKEY EDGEWOOD 00:26:24 08:30 min/mile 5K 240 7 1 M 159
13728 COLDEN WINTERS PLUMAS LAKE 00:27:07 08:44 min/mile 5K 271 8 2 M 176
13237 JACK GARDNER MONTEREY 00:27:26 08:50 min/mile 5K 293 7 3 M 185
13548 LUKA RAKIC PACIFIC GROVE 00:34:43 11:11 min/mile 5K 743 5 4 M 349
13243 DANIEL GEORGIEV MONTEREY 00:35:08 11:20 min/mile 5K 761 6 5 M 354
13530 MARAMA PEENI CARMEL 00:27:20 08:49 min/mile 5K 284 8 1 F 99
13675 KIRA TORSON SAN FRANCISCO 00:30:46 09:55 min/mile 5K 523 7 2 F 240
15021 ADELYN GRECO PACIFIC GROVE 00:33:37 10:50 min/mile 5K 672 8 3 F 339
14393 MAYA ROCKLIN 00:34:53 11:15 min/mile 5K 752 7 4 F 394
13466 ALEXIS MORENO MENIFEE 00:37:01 11:56 min/mile 5K 866 8 5 F 471
9 - 11
Bib Name City Chip Elapsed Pace Division Div Place Age Age Place Gender Gender Place
13231 ANTONY GABRIK PEBBLE BEACH 00:21:27 06:55 min/mile 5K 52 11 1 M 42
13546 RYAN QUIROS MENLO PARK 00:22:24 07:13 min/mile 5K 75 11 2 M 62
15005 BRANDON RIOS 00:24:40 07:57 min/mile 5K 153 11 3 M 110
13781 MILO NOTHNAGLE PACIFIC GROVE 00:24:44 07:58 min/mile 5K 155 11 4 M 111
13287 CURTIS JOSEPH HAUPERT TRUCKEE 00:25:23 08:11 min/mile 5K 181 11 5 M 127
13623 DEVYN SMITH LOS ALTOS 00:21:15 06:51 min/mile 5K 48 10 1 F 9
13820 LEANA COLLINS CARMEL VALLEY 00:27:50 08:58 min/mile 5K 315 10 2 F 118
13250 GIADA GILMORE FRESNO 00:29:47 09:36 min/mile 5K 434 10 3 F 189
15003 ASHLEY EARP CARMEL 00:29:55 09:39 min/mile 5K 449 10 4 F 201
13561 CAMERON REISZ SANTA CRUZ 00:30:02 09:41 min/mile 5K 461 10 5 F 207
12 - 14
Bib Name City Chip Elapsed Pace Division Div Place Age Age Place Gender Gender Place
13835 BROEN HOLMAN SONORA 00:15:23 04:57 min/mile 5K 1 13 1 M 1
13571 KADEN ROBISON SONORA 00:19:33 06:18 min/mile 5K 13 14 2 M 12
1020 JOSIAH FORD FRESNO 00:20:54 06:44 min/mile 5K 36 14 3 M 29
1019 TALAN FORBORD LOS GATOS 00:20:58 06:45 min/mile 5K 39 13 4 M 32
13266 TOBY GRIEF PEBBLE BEACH 00:21:34 06:57 min/mile 5K 55 14 5 M 45
13531 TEAH PEENI CARMEL 00:21:59 07:05 min/mile 5K 65 13 1 F 10
4031 QUINN JOYCE SAN ANSELMO 00:24:08 07:47 min/mile 5K 132 13 2 F 32
5037 SARA MILLETTE SEASIDE 00:24:42 07:58 min/mile 5K 154 14 3 F 41
13290 SHELI HAZAN PLEASANTON 00:26:27 08:31 min/mile 5K 242 13 4 F 79
13813 CHARLOTTE CHENOWETH PACIFIC GROVE 00:27:07 08:44 min/mile 5K 272 12 5 F 92
15 - 19
Bib Name City Chip Elapsed Pace Division Div Place Age Age Place Gender Gender Place
13962 HUNTER KELLY SANTA CRUZ 00:17:41 05:42 min/mile 5K 7 18 1 M 6
13128 AIDAN CINQUE SANTA CRUZ 00:19:05 06:09 min/mile 5K 10 15 2 M 9
13463 PETER MOORE SALINAS 00:21:07 06:48 min/mile 5K 45 16 3 M 36
13018 SIDDHARTH ANANT SAN JOSE 00:21:19 06:52 min/mile 5K 49 15 4 M 39
4032 DYLAN JOYCE SAN ANSELMO 00:21:33 06:57 min/mile 5K 54 15 5 M 44
13338 NORAH JERINIC-BRODEUR NOVATO 00:23:58 07:43 min/mile 5K 127 16 1 F 30
15000 LAUREN PRITCHARD PEBBLE BEACH 00:24:44 07:58 min/mile 5K 156 16 2 F 42
13288 GALI HAZAN PLEASANTON 00:29:16 09:26 min/mile 5K 381 16 3 F 153
13999 ANNALISA MORE SALINAS 00:29:49 09:37 min/mile 5K 435 16 4 F 190
15018 SAMANTHA HANCOCK MONROE 00:30:15 09:45 min/mile 5K 483 18 5 F 216
20 - 24
Bib Name City Chip Elapsed Pace Division Div Place Age Age Place Gender Gender Place
13888 STEVEN GROLLE LOS ALTOS 00:15:24 04:58 min/mile 5K 2 24 1 M 2
13475 MICHAEL MRGUDIC TURLOCK 00:15:35 05:01 min/mile 5K 3 24 2 M 3
13651 CAMERON TAYLOR PALO ALTO 00:19:35 06:19 min/mile 5K 15 24 3 M 14
13984 KYLE BROWN MARINA 00:24:14 07:49 min/mile 5K 135 24 4 M 99
13576 DAVID ROMAYOR SALINAS 00:25:57 08:22 min/mile 5K 207 22 5 M 145
13471 MEGAN MORONEY CAMBRIA 00:23:02 07:25 min/mile 5K 96 24 1 F 19
5024 KELSEY HIDESHIMA SAN JOSE 00:23:04 07:26 min/mile 5K 99 24 2 F 21
13540 DANIELLE POMEROY SAN LEANDRO 00:25:00 08:03 min/mile 5K 163 24 3 F 45
3029 MICHELLE MARTINELLI SAN FRANCISCO 00:26:22 08:30 min/mile 5K 238 24 4 F 77
6067 JACLYN SIGMEN CASTAIC 00:28:31 09:11 min/mile 5K 348 23 5 F 137
25 - 29
Bib Name City Chip Elapsed Pace Division Div Place Age Age Place Gender Gender Place
34 KEVIN ZENTNER TRACY 00:18:57 06:06 min/mile 5K 9 26 1 M 8
13985 JAIRO GARCIA MEXICO 00:19:14 06:12 min/mile 5K 12 29 2 M 11
13821 NICHOLAS KOTT SAN JOSE 00:19:50 06:23 min/mile 5K 20 29 3 M 18
3040 JUAN ROJO KING CITY 00:21:13 06:50 min/mile 5K 47 26 4 M 38
30 ERIC TLAPANCO SEASIDE 00:21:37 06:58 min/mile 5K 56 27 5 M 46
13946 JULIA LANE LAS VEGAS 00:22:36 07:17 min/mile 5K 82 26 1 F 14
3047 MONA STERLING DANVILLE 00:23:28 07:34 min/mile 5K 115 26 2 F 24
13218 RUTH FISH MONTEREY 00:23:44 07:39 min/mile 5K 120 27 3 F 26
1021 SARAH FOURBY SAN LEANDRO 00:23:52 07:41 min/mile 5K 124 26 4 F 28
1054 ERIKA SAVAGE APTOS 00:23:56 07:43 min/mile 5K 125 28 5 F 29
30 - 34
Bib Name City Chip Elapsed Pace Division Div Place Age Age Place Gender Gender Place
14246 SEAN COYLE MONTEREY 00:16:39 05:22 min/mile 5K 4 31 1 M 4
13228 NATHANIEL FREESE SAN FRANCISCO 00:17:42 05:42 min/mile 5K 8 34 2 M 7
2043 BRAD YOUNG ALEXANDRIA 00:19:39 06:20 min/mile 5K 17 32 3 M 15
4025 PETER HESS WINSTON SALEM 00:20:08 06:29 min/mile 5K 23 30 4 M 21
13179 NICHOLAS DILLES SANTA CRUZ 00:20:32 06:37 min/mile 5K 29 33 5 M 24
15009 JEN ALBRIGHT VISTA 00:19:38 06:20 min/mile 5K 16 30 1 F 1
1023 HALEY HAMMERSHAIMB SAN FRANCISCO 00:20:35 06:38 min/mile 5K 30 30 2 F 5
1 RACHAEL BANTON TEMPLETON 00:21:02 06:47 min/mile 5K 42 30 3 F 7
2015 JEN GRUBER SEASIDE 00:21:07 06:48 min/mile 5K 44 32 4 F 8
1031 MAE KINDLER LAUDERDALE 00:22:18 07:11 min/mile 5K 72 30 5 F 12
35 - 39
Bib Name City Chip Elapsed Pace Division Div Place Age Age Place Gender Gender Place
11 KYRK JORDAN SAN MATEO 00:17:11 05:32 min/mile 5K 5 38 1 M 5
13156 JOHN DANIEL SANTA CLARA 00:19:40 06:20 min/mile 5K 18 35 2 M 16
13840 ABE PEDROZA MARINA 00:20:05 06:28 min/mile 5K 22 39 3 M 20
15037 NATHAN SANDERS ALBERT LEE 00:20:24 06:34 min/mile 5K 26 36 4 M 22
13880 DAVID BAIRD PACIFIC GROVE 00:20:28 06:36 min/mile 5K 28 35 5 M 23
13709 LINDSAY WETZEL POLIN MARINA 00:20:46 06:41 min/mile 5K 35 38 1 F 6
22 LAURIE SANDERS ALBERT LEA 00:22:40 07:18 min/mile 5K 86 36 2 F 16
4001 SARAH AMSLEY PACIFIC GROVE 00:23:04 07:26 min/mile 5K 98 39 3 F 20
1001 OLIVIA ARNETT HOLLISTER 00:24:22 07:51 min/mile 5K 142 37 4 F 35
1002 KIMBERLY RANDY HOLLISTER 00:24:26 07:52 min/mile 5K 143 39 5 F 36
40 - 44
Bib Name City Chip Elapsed Pace Division Div Place Age Age Place Gender Gender Place
13942 JOHN HUGHES PLANO 00:19:14 06:12 min/mile 5K 11 43 1 M 10
1041 JOHN MINKEMA MODESTO 00:19:48 06:23 min/mile 5K 19 43 2 M 17
5 BRIAN EARP CARMEL 00:20:40 06:40 min/mile 5K 31 42 3 M 25
1065 TOMMY WITTEBERG DORSTEN 00:21:51 07:02 min/mile 5K 59 42 4 M 49
8014 PETER CLAIRE LODI 00:22:13 07:10 min/mile 5K 70 43 5 M 58
13525 ANDREA PAGE PACIFIC GROVE 00:20:25 06:35 min/mile 5K 27 43 1 F 4
13724 JENNIFER WILLOUGHBY APTOS 00:22:11 07:09 min/mile 5K 69 41 2 F 11
13119 JOCELYN CHAPMAN SAN FRANCISCO 00:22:37 07:17 min/mile 5K 84 42 3 F 15
1060 SARAH THOMAS ARNOLD 00:22:41 07:19 min/mile 5K 87 44 4 F 17
13721 ERIKA WILLIAMS LANTANA 00:22:49 07:21 min/mile 5K 91 44 5 F 18
45 - 49
Bib Name City Chip Elapsed Pace Division Div Place Age Age Place Gender Gender Place
33 SHAWN YOUNG VALENCIA 00:20:42 06:40 min/mile 5K 33 45 1 M 27
2009 EARL DEAN SEASIDE 00:20:56 06:45 min/mile 5K 38 47 2 M 31
26 WILLIAM SMITH QUEEN CREEK 00:21:24 06:54 min/mile 5K 51 47 3 M 41
15070 DAVID DIAZ MONTEREY 00:21:28 06:55 min/mile 5K 53 46 4 M 43
4028 BOBBY HOLLIS SAN FRANCISCO 00:21:57 07:04 min/mile 5K 63 45 5 M 53
27 KAREN SOBRINO ST GALLEN 00:20:08 06:29 min/mile 5K 24 46 1 F 2
13026 CHANDRA BABCOCK CARMEL 00:24:36 07:56 min/mile 5K 150 46 2 F 39
3021 VERA JERINIC-BRODEUR NOVATO 00:25:38 08:16 min/mile 5K 193 48 3 F 55
13005 ELIZABETH AGUILAR SAN DIEGO 00:26:14 08:27 min/mile 5K 227 49 4 F 72
13107 ERICKA CANTU REEDLEY 00:26:59 08:42 min/mile 5K 261 46 5 F 85
50 - 54
Bib Name City Chip Elapsed Pace Division Div Place Age Age Place Gender Gender Place
1024 BILL HAUPERT OLYMPIC VLY 00:19:51 06:24 min/mile 5K 21 50 1 M 19
13 RICHIE KING WEST SACRAMENTO 00:20:55 06:44 min/mile 5K 37 50 2 M 30
1045 ESTEBAN ORTEGA SEASIDE 00:21:04 06:47 min/mile 5K 43 51 3 M 35
13365 PAUL KRALOVANEC TAMPA 00:22:55 07:23 min/mile 5K 94 50 4 M 74
3007 MICHAEL CINQUE SANTA CRUZ 00:23:42 07:38 min/mile 5K 118 54 5 M 90
13947 LIISA NICHOLS DEL REY OAKS 00:20:14 06:31 min/mile 5K 25 53 1 F 3
1040 EMMA MEDARA TRUCKEE 00:23:13 07:29 min/mile 5K 107 53 2 F 22
13961 LYN JOHNSON SANTA CRUZ 00:24:00 07:44 min/mile 5K 128 53 3 F 31
5027 ALICIA JUAREZ WHITTIER 00:24:09 07:47 min/mile 5K 133 54 4 F 33
1004 SARAH BOSWELL SAN RAMON 00:24:50 08:00 min/mile 5K 159 54 5 F 43
55 - 59
Bib Name City Chip Elapsed Pace Division Div Place Age Age Place Gender Gender Place
13886 ALEJANDRO GONZALEZ BEN LOMOND 00:19:34 06:18 min/mile 5K 14 58 1 M 13
15 BRIAN MITCHLER SANTA CRUZ 00:21:02 06:47 min/mile 5K 41 56 2 M 34
2027 DOUG NEVEU MESQUITE 00:22:24 07:13 min/mile 5K 74 59 3 M 61
13060 JOSEPH BLAU MARINA 00:23:46 07:40 min/mile 5K 122 57 4 M 93
13326 MARK HUDSON CARMEL 00:24:49 08:00 min/mile 5K 157 56 5 M 112
15031 KATHY MILLICH SAINT HELENA 00:26:03 08:24 min/mile 5K 215 56 1 F 64
4040 SANDY METZGER BRECKENRIDGE 00:27:23 08:50 min/mile 5K 286 56 2 F 100
2030 SUSAN PEIRICK GILBERT 00:28:11 09:05 min/mile 5K 332 59 3 F 127
4074 THERESA WOO OAKLAND 00:28:31 09:11 min/mile 5K 346 56 4 F 136
7041 PATRICIA NEW MONTEREY 00:29:31 09:31 min/mile 5K 404 58 5 F 167
60 - 64
Bib Name City Chip Elapsed Pace Division Div Place Age Age Place Gender Gender Place
13940 JONATHAN GELLER SALINAS 00:21:10 06:49 min/mile 5K 46 61 1 M 37
25 FRED SIPAT SANTA CLARA 00:21:20 06:52 min/mile 5K 50 60 2 M 40
15063 STEVE SCOTT PACIFIC GROVE 00:21:48 07:01 min/mile 5K 58 63 3 M 48
13192 MIKE DUNN NEWARK 00:23:08 07:27 min/mile 5K 101 64 4 M 78
1027 BRUCE HORN PORTLAND 00:23:21 07:31 min/mile 5K 111 60 5 M 85
1025 SUSAN HAYES PORTLAND 00:25:59 08:22 min/mile 5K 209 60 1 F 61
13186 ANN MARIE DRAEGER PORTOLA VALLEY 00:26:01 08:23 min/mile 5K 212 61 2 F 63
3026 MARCIE KIRSCH PLANTATION 00:27:37 08:54 min/mile 5K 304 63 3 F 113
13133 TANA COATES SN LUIS OBISP 00:28:58 09:20 min/mile 5K 369 60 4 F 147
7053 DEBBIE SALKO CHEVY CHASE 00:29:51 09:37 min/mile 5K 438 62 5 F 193
65 - 69
Bib Name City Chip Elapsed Pace Division Div Place Age Age Place Gender Gender Place
15061 HANK ARMSTRONG 00:27:54 09:00 min/mile 5K 321 66 1 M 195
13222 CALVIN FONG ROSEVILLE 00:30:48 09:56 min/mile 5K 527 67 2 M 280
9004 PAUL BAKER LOS ALTOS 00:30:58 09:59 min/mile 5K 539 65 3 M 284
13321 TOM HOWARD PACIFIC GROVE 00:31:14 10:04 min/mile 5K 555 66 4 M 291
7013 CRAIG R DUNCAN CHICO 00:32:21 10:26 min/mile 5K 622 65 5 M 312
15064 JOANN SCOTT PACIFIC GROVE 00:26:01 08:23 min/mile 5K 211 65 1 F 62
10036 PAT RITCHIE ORLANDO 00:31:50 10:16 min/mile 5K 592 67 2 F 282
13183 KATHY DONNAHOO AUBERRY 00:36:35 11:48 min/mile 5K 850 69 3 F 458
11013 MARSHA DICKERSON BODFISH 00:36:56 11:54 min/mile 5K 863 66 4 F 468
13300 MAO HER FRESNO 00:37:01 11:56 min/mile 5K 865 66 5 F 470
70 - 74
Bib Name City Chip Elapsed Pace Division Div Place Age Age Place Gender Gender Place
1037 BOBBY MCKEE LA SELVA BCH 00:21:59 07:05 min/mile 5K 64 70 1 M 54
5034 MICHAEL MAGATELLI SACRAMENTO 00:28:29 09:11 min/mile 5K 344 71 2 M 206
13628 ALLAN STANBRIDGE BURLINGAME 00:28:36 09:13 min/mile 5K 353 72 3 M 209
2017 JOHN HAYES SAN DIEGO 00:29:01 09:21 min/mile 5K 370 70 4 M 219
13937 DAVE CORTEZ SALINAS 00:30:31 09:50 min/mile 5K 505 74 5 M 271
7062 CAROL TURNER NEWARK 00:35:11 11:20 min/mile 5K 762 74 1 F 402
13229 CAROL FUESSENICH PACIFIC GROVE 00:42:00 13:32 min/mile 5K 1020 72 2 F 568
13064 RAQUEL BLOUNT QUEEN CREEK 00:46:13 14:54 min/mile 5K 1126 70 3 F 641
13609 CHRIS SHUCK ATASCADERO 00:47:04 15:10 min/mile 5K 1142 72 4 F 654
13659 DIANE THOMAS SACRAMENTO 00:50:17 16:13 min/mile 5K 1210 74 5 F 698
75 - 79
Bib Name City Chip Elapsed Pace Division Div Place Age Age Place Gender Gender Place
13380 DOUGLAS LAZO FRESNO 00:34:49 11:13 min/mile 5K 746 77 1 M 350
13568 TIM RILEY PACIFIC GROVE 00:47:28 15:18 min/mile 5K 1150 75 2 M 483
13671 DON TOMPKIN MONTEREY 00:50:13 16:11 min/mile 5K 1207 76 3 M 503
13002 BILL ACKERKNECHT SANTA CRUZ 00:57:56 18:41 min/mile 5K 1331 77 4 M 536
13055 DAN BIONDI MONTEREY 00:59:04 19:03 min/mile 5K 1342 75 5 M 540
11048 NANCY MITRICK FREMONT 00:43:37 14:04 min/mile 5K 1061 76 1 F 596
13306 NOELLE HETZ MONTEREY 00:45:32 14:41 min/mile 5K 1105 75 2 F 626
12022 LAURI MASSEY SACRAMENTO 00:50:17 16:13 min/mile 5K 1211 75 3 F 699
13054 BECKY BIONDI MONTEREY 00:59:07 19:04 min/mile 5K 1347 75 4 F 795
80 - 84
Bib Name City Chip Elapsed Pace Division Div Place Age Age Place Gender Gender Place
13521 CARL OUTZEN MONTEREY 00:36:25 11:44 min/mile 5K 837 80 1 M 381
13342 TOM JONES SALINAS 00:37:15 12:00 min/mile 5K 874 81 2 M 392
15010 ED POWERS HANSVILLE 01:05:33 21:08 min/mile 5K 1405 82 3 M 560
13040 JACQUELIN BARTZ FOLSOM 00:44:05 14:13 min/mile 5K 1066 81 1 F 600
13430 CAROLYN MCLANE LITTLETON 00:45:44 14:45 min/mile 5K 1110 84 2 F 630
13010 KAY ALLAN CARMEL 00:46:55 15:08 min/mile 5K 1140 81 3 F 653
85 - 89
Bib Name City Chip Elapsed Pace Division Div Place Age Age Place Gender Gender Place
85 - 98
Bib Name City Chip Elapsed Pace Division Div Place Age Age Place Gender Gender Place
90 - 99
Bib Name City Chip Elapsed Pace Division Div Place Age Age Place Gender Gender Place
99 - 99
Bib Name City Chip Elapsed Pace Division Div Place Age Age Place Gender Gender Place

Race Info

Participants:
2165
Last Updated:
11/30/2019 4:31:11 PM

Results are preliminary for 3 days.

Tip: Swipe the results table to view more.

Search for Name, Bib, City, State or Team
in the field above… by clicking the icon below…

Notes & Race Statistics

NO DIV - 1


Male
Total Finishers Avg Pace
1 00:00

Female
Total Finishers Avg Pace
0 00:00

5K - 1411


Male
Total Finishers Avg Pace
571 10:58

Female
Total Finishers Avg Pace
840 12:23

3K - 286


Male
Total Finishers Avg Pace
133 14:31

Female
Total Finishers Avg Pace
153 16:21
Timed using RM Timing Systems
Take control of your event
A product of US Sports Timing

Have a question or need to make a correction?

Submit a Result Correction